Wetterdaten: Woche 11.11.13 - 17.11.13 (KW46)
Datum Zeit Temp. A. Feuchte A. Luftdruck Regen Wind Richtung Taupunkt Windchill Windben
11.11.2013 00:00 4,4 C 92 % 1018,8 hPa 0,0 l/m 4,7 km/h (1 Bft) W 3,2 C 4,4 C 12,2 km/h (2 Bft)
11.11.2013 01:00 3,7 C 93 % 1020,2 hPa 0,0 l/m 3,2 km/h (1 Bft) W 2,7 C 3,7 C 8,6 km/h (2 Bft)
11.11.2013 02:00 3,3 C 94 % 1021,5 hPa 0,0 l/m 1,7 km/h (1 Bft) W-NW 2,3 C 3,3 C 5,9 km/h (2 Bft)
11.11.2013 03:00 3,1 C 94 % 1022,4 hPa 0,0 l/m 1,7 km/h (1 Bft) W 2,3 C 3,1 C 6,3 km/h (2 Bft)
11.11.2013 04:00 3,2 C 95 % 1023,4 hPa 0,0 l/m 1,3 km/h (1 Bft) W 2,5 C 3,2 C 4,9 km/h (1 Bft)
11.11.2013 05:00 3,3 C 95 % 1024,4 hPa 0,0 l/m 0,9 km/h (0 Bft) W 2,6 C 3,3 C 5,2 km/h (1 Bft)
11.11.2013 06:00 3,0 C 95 % 1025,2 hPa 0,0 l/m 0,5 km/h (0 Bft) W-NW 2,3 C 3,0 C 2,1 km/h (1 Bft)
11.11.2013 07:00 2,7 C 95 % 1026,1 hPa 0,2 l/m 0,0 km/h (0 Bft) N 1,9 C 2,7 C 0,9 km/h (0 Bft)
11.11.2013 08:00 2,9 C 96 % 1027,1 hPa 0,0 l/m 0,3 km/h (0 Bft) W 2,3 C 2,9 C 2,8 km/h (1 Bft)
11.11.2013 09:00 3,7 C 96 % 1028,1 hPa 0,0 l/m 0,9 km/h (0 Bft) W-NW 3,1 C 3,7 C 3,5 km/h (1 Bft)
11.11.2013 10:00 4,3 C 96 % 1029,0 hPa 0,0 l/m 0,5 km/h (0 Bft) SW 3,8 C 4,3 C 2,7 km/h (1 Bft)
11.11.2013 11:00 5,1 C 96 % 1029,6 hPa 0,0 l/m 1,1 km/h (0 Bft) S-SW 4,5 C 5,1 C 3,7 km/h (1 Bft)
11.11.2013 12:00 6,7 C 94 % 1029,8 hPa 0,0 l/m 1,9 km/h (1 Bft) S-SW 5,8 C 6,7 C 5,2 km/h (1 Bft)
11.11.2013 13:00 8,5 C 87 % 1029,8 hPa 0,0 l/m 1,3 km/h (1 Bft) W-NW 6,4 C 8,5 C 5,3 km/h (1 Bft)
11.11.2013 14:00 9,4 C 81 % 1029,7 hPa 0,0 l/m 1,9 km/h (1 Bft) SW 6,2 C 9,4 C 5,6 km/h (2 Bft)
11.11.2013 15:00 8,7 C 79 % 1029,8 hPa 0,0 l/m 1,2 km/h (1 Bft) S-SW 5,2 C 8,7 C 4,4 km/h (1 Bft)
11.11.2013 16:00 6,4 C 85 % 1030,1 hPa 0,0 l/m 0,0 km/h (0 Bft) N 4,2 C 6,4 C 0,0 km/h (0 Bft)
11.11.2013 17:00 3,8 C 90 % 1030,5 hPa 0,0 l/m 0,0 km/h (0 Bft) N 2,4 C 3,8 C 0,0 km/h (0 Bft)
11.11.2013 18:00 2,8 C 92 % 1030,9 hPa 0,0 l/m 0,0 km/h (0 Bft) N 1,7 C 2,8 C 0,0 km/h (0 Bft)
11.11.2013 19:00 1,5 C 93 % 1031,1 hPa 0,0 l/m 0,0 km/h (0 Bft) N 0,4 C 1,5 C 0,0 km/h (0 Bft)
11.11.2013 20:00 1,8 C 94 % 1031,1 hPa 0,0 l/m 0,1 km/h (0 Bft) SW 0,9 C 1,8 C 0,9 km/h (0 Bft)
11.11.2013 21:00 3,7 C 92 % 1031,0 hPa 0,0 l/m 1,2 km/h (1 Bft) S-SW 2,5 C 3,7 C 3,6 km/h (1 Bft)
11.11.2013 22:00 4,2 C 89 % 1030,7 hPa 0,0 l/m 2,8 km/h (1 Bft) S-SW 2,6 C 4,2 C 6,4 km/h (2 Bft)
11.11.2013 23:00 3,7 C 88 % 1030,4 hPa 0,0 l/m 1,9 km/h (1 Bft) S-SW 2,0 C 3,7 C 4,9 km/h (1 Bft)
12.11.2013 00:00 3,5 C 88 % 1029,9 hPa 0,0 l/m 2,1 km/h (1 Bft) S 1,7 C 3,5 C 5,1 km/h (1 Bft)
12.11.2013 01:00 2,7 C 89 % 1029,6 hPa 0,0 l/m 0,7 km/h (0 Bft) S-SO 1,0 C 2,7 C 2,9 km/h (1 Bft)
12.11.2013 02:00 1,8 C 91 % 1029,3 hPa 0,0 l/m 0,3 km/h (0 Bft) S-SO 0,5 C 1,8 C 1,7 km/h (1 Bft)
12.11.2013 03:00 2,1 C 91 % 1028,4 hPa 0,0 l/m 2,1 km/h (1 Bft) S-SO 0,8 C 2,1 C 6,3 km/h (2 Bft)
12.11.2013 04:00 2,4 C 90 % 1027,8 hPa 0,0 l/m 1,6 km/h (1 Bft) S 0,9 C 2,4 C 4,8 km/h (1 Bft)
12.11.2013 05:00 2,0 C 91 % 1027,3 hPa 0,0 l/m 0,0 km/h (0 Bft) N 0,7 C 2,0 C 0,0 km/h (0 Bft)
12.11.2013 06:00 2,6 C 90 % 1026,7 hPa 0,0 l/m 0,1 km/h (0 Bft) S-SO 1,0 C 2,6 C 0,8 km/h (0 Bft)
12.11.2013 07:00 2,7 C 89 % 1027,0 hPa 0,0 l/m 0,0 km/h (0 Bft) N 1,1 C 2,7 C 0,0 km/h (0 Bft)
12.11.2013 08:00 3,3 C 88 % 1026,7 hPa 0,0 l/m 0,8 km/h (0 Bft) S 1,4 C 3,3 C 3,1 km/h (1 Bft)
12.11.2013 09:00 4,9 C 83 % 1026,3 hPa 0,0 l/m 3,6 km/h (1 Bft) S-SW 2,3 C 4,9 C 8,6 km/h (2 Bft)
12.11.2013 10:00 6,5 C 78 % 1025,9 hPa 0,0 l/m 6,1 km/h (2 Bft) S-SW 2,9 C 6,5 C 14,4 km/h (3 Bft)
12.11.2013 11:00 7,1 C 74 % 1025,5 hPa 0,0 l/m 6,5 km/h (2 Bft) S-SW 2,9 C 6,7 C 13,7 km/h (3 Bft)
12.11.2013 12:00 7,6 C 73 % 1024,8 hPa 0,0 l/m 7,3 km/h (2 Bft) S-SW 3,1 C 6,8 C 14,4 km/h (3 Bft)
12.11.2013 13:00 7,9 C 73 % 1024,2 hPa 0,0 l/m 6,1 km/h (2 Bft) S-SW 3,3 C 7,6 C 12,9 km/h (3 Bft)
12.11.2013 14:00 8,2 C 72 % 1023,7 hPa 0,0 l/m 4,8 km/h (1 Bft) S-SW 3,5 C 8,2 C 10,7 km/h (2 Bft)
12.11.2013 15:00 7,8 C 72 % 1023,5 hPa 0,0 l/m 5,1 km/h (1 Bft) S-SW 3,1 C 7,9 C 10,3 km/h (2 Bft)
12.11.2013 16:00 7,5 C 76 % 1023,4 hPa 0,0 l/m 3,1 km/h (1 Bft) S-SW 3,5 C 7,5 C 6,7 km/h (2 Bft)
12.11.2013 17:00 7,2 C 78 % 1023,7 hPa 0,0 l/m 0,5 km/h (0 Bft) SW 3,7 C 7,2 C 2,4 km/h (1 Bft)
12.11.2013 18:00 7,0 C 78 % 1023,7 hPa 0,0 l/m 1,5 km/h (1 Bft) S-SW 3,4 C 7,0 C 3,9 km/h (1 Bft)
12.11.2013 19:00 6,9 C 85 % 1024,0 hPa 0,0 l/m 1,9 km/h (1 Bft) W 4,5 C 6,9 C 6,4 km/h (2 Bft)
12.11.2013 20:00 6,6 C 90 % 1024,5 hPa 0,0 l/m 2,7 km/h (1 Bft) W 5,0 C 6,6 C 7,8 km/h (2 Bft)
12.11.2013 21:00 6,2 C 92 % 1024,8 hPa 0,0 l/m 1,6 km/h (1 Bft) W-NW 5,0 C 6,2 C 5,5 km/h (2 Bft)
12.11.2013 22:00 6,1 C 93 % 1025,0 hPa 0,0 l/m 1,5 km/h (1 Bft) SW 5,1 C 6,1 C 5,6 km/h (2 Bft)
12.11.2013 23:00 6,2 C 94 % 1025,3 hPa 0,0 l/m 1,3 km/h (1 Bft) W 5,3 C 6,2 C 4,9 km/h (1 Bft)
13.11.2013 00:00 6,3 C 94 % 1025,8 hPa 0,0 l/m 1,2 km/h (1 Bft) W 5,4 C 6,3 C 4,1 km/h (1 Bft)
13.11.2013 01:00 6,5 C 95 % 1026,2 hPa 0,0 l/m 1,9 km/h (1 Bft) W-NW 5,8 C 6,5 C 6,5 km/h (2 Bft)
13.11.2013 02:00 6,8 C 95 % 1026,7 hPa 0,0 l/m 1,7 km/h (1 Bft) W 6,1 C 6,8 C 5,9 km/h (2 Bft)
13.11.2013 03:00 6,9 C 95 % 1027,2 hPa 0,0 l/m 1,0 km/h (0 Bft) W 6,2 C 6,9 C 4,0 km/h (1 Bft)
13.11.2013 04:00 6,7 C 94 % 1027,3 hPa 0,0 l/m 0,5 km/h (0 Bft) W-SW 5,8 C 6,7 C 2,0 km/h (1 Bft)
13.11.2013 05:00 6,1 C 94 % 1027,9 hPa 0,0 l/m 1,2 km/h (1 Bft) W 5,2 C 6,1 C 4,3 km/h (1 Bft)
13.11.2013 06:00 5,4 C 95 % 1028,4 hPa 0,0 l/m 0,5 km/h (0 Bft) N 4,6 C 5,4 C 2,8 km/h (1 Bft)
13.11.2013 07:00 5,6 C 95 % 1029,0 hPa 0,0 l/m 1,0 km/h (0 Bft) W-NW 4,8 C 5,6 C 3,6 km/h (1 Bft)
13.11.2013 08:00 5,6 C 94 % 1029,7 hPa 0,0 l/m 1,8 km/h (1 Bft) SW 4,8 C 5,6 C 5,6 km/h (2 Bft)
13.11.2013 09:00 5,9 C 94 % 1030,2 hPa 0,2 l/m 2,2 km/h (1 Bft) W-NW 4,9 C 5,9 C 6,4 km/h (2 Bft)
13.11.2013 10:00 7,0 C 91 % 1030,6 hPa 0,0 l/m 3,1 km/h (1 Bft) W-NW 5,5 C 7,0 C 7,9 km/h (2 Bft)
13.11.2013 11:00 8,2 C 86 % 1030,5 hPa 0,0 l/m 4,1 km/h (1 Bft) W-SW 6,0 C 8,2 C 10,5 km/h (2 Bft)
13.11.2013 12:00 9,0 C 84 % 1030,5 hPa 0,0 l/m 3,7 km/h (1 Bft) W-NW 6,4 C 9,0 C 8,6 km/h (2 Bft)
13.11.2013 13:00 9,6 C 81 % 1030,2 hPa 0,0 l/m 4,1 km/h (1 Bft) W 6,5 C 9,6 C 10,5 km/h (2 Bft)
13.11.2013 14:00 10,0 C 78 % 1029,9 hPa 0,0 l/m 4,5 km/h (1 Bft) W-NW 6,3 C 10,0 C 12,0 km/h (2 Bft)
13.11.2013 15:00 8,8 C 81 % 1029,9 hPa 0,0 l/m 2,3 km/h (1 Bft) W 5,8 C 8,8 C 6,4 km/h (2 Bft)
13.11.2013 16:00 7,9 C 84 % 1029,9 hPa 0,0 l/m 1,3 km/h (1 Bft) W 5,3 C 7,9 C 4,3 km/h (1 Bft)
13.11.2013 17:00 6,4 C 88 % 1029,8 hPa 0,0 l/m 0,2 km/h (0 Bft) N 4,5 C 6,4 C 1,1 km/h (0 Bft)
13.11.2013 18:00 4,6 C 91 % 1029,7 hPa 0,0 l/m 0,2 km/h (0 Bft) S-SW 3,2 C 4,6 C 0,8 km/h (0 Bft)
13.11.2013 19:00 3,8 C 92 % 1029,6 hPa 0,0 l/m 0,1 km/h (0 Bft) N 2,6 C 3,8 C 0,3 km/h (0 Bft)
13.11.2013 20:00 2,0 C 93 % 1029,3 hPa 0,0 l/m 0,0 km/h (0 Bft) N 1,0 C 2,0 C 0,0 km/h (0 Bft)
13.11.2013 21:00 1,3 C 94 % 1028,8 hPa 0,0 l/m 0,0 km/h (0 Bft) N 0,4 C 1,3 C 0,0 km/h (0 Bft)
13.11.2013 22:00 0,5 C 94 % 1028,3 hPa 0,0 l/m 0,0 km/h (0 Bft) N -0,4 C 0,5 C 0,0 km/h (0 Bft)
13.11.2013 23:00 -0,1 C 95 % 1027,9 hPa 0,0 l/m 0,0 km/h (0 Bft) N -0,9 C -0,1 C 0,0 km/h (0 Bft)
14.11.2013 00:00 -0,4 C 95 % 1027,3 hPa 0,0 l/m 0,0 km/h (0 Bft) N -1,1 C -0,4 C 0,0 km/h (0 Bft)
14.11.2013 01:00 -1,0 C 95 % 1026,8 hPa 0,0 l/m 0,0 km/h (0 Bft) N -1,7 C -1,0 C 0,0 km/h (0 Bft)
14.11.2013 02:00 -0,8 C 95 % 1026,0 hPa 0,0 l/m 0,0 km/h (0 Bft) N -1,5 C -0,8 C 0,0 km/h (0 Bft)
14.11.2013 03:00 -1,1 C 95 % 1025,2 hPa 0,0 l/m 0,0 km/h (0 Bft) N -1,8 C -1,1 C 0,0 km/h (0 Bft)
14.11.2013 04:00 -1,4 C 95 % 1024,4 hPa 0,0 l/m 0,0 km/h (0 Bft) N -2,1 C -1,4 C 0,0 km/h (0 Bft)
14.11.2013 05:00 -0,8 C 96 % 1023,5 hPa 0,0 l/m 0,1 km/h (0 Bft) N -1,4 C -0,8 C 0,5 km/h (0 Bft)
14.11.2013 06:00 -0,8 C 96 % 1022,7 hPa 0,0 l/m 0,0 km/h (0 Bft) N -1,4 C -0,8 C 0,0 km/h (0 Bft)
14.11.2013 07:00 -0,9 C 96 % 1022,2 hPa 0,0 l/m 0,0 km/h (0 Bft) N -1,4 C -0,9 C 0,0 km/h (0 Bft)
14.11.2013 08:00 -0,2 C 96 % 1021,7 hPa 0,0 l/m 0,0 km/h (0 Bft) N -0,8 C -0,2 C 0,0 km/h (0 Bft)
14.11.2013 09:00 1,8 C 96 % 1021,2 hPa 0,0 l/m 0,7 km/h (0 Bft) S-SO 1,2 C 1,8 C 2,1 km/h (1 Bft)
14.11.2013 10:00 3,5 C 96 % 1020,8 hPa 0,0 l/m 3,9 km/h (1 Bft) S 2,9 C 3,5 C 8,8 km/h (2 Bft)
14.11.2013 11:00 5,0 C 91 % 1020,4 hPa 0,0 l/m 3,2 km/h (1 Bft) S-SW 3,8 C 5,0 C 6,5 km/h (2 Bft)
14.11.2013 12:00 6,7 C 84 % 1019,6 hPa 0,0 l/m 5,7 km/h (2 Bft) SW 4,1 C 6,5 C 12,5 km/h (2 Bft)
14.11.2013 13:00 7,2 C 78 % 1019,4 hPa 0,0 l/m 6,3 km/h (2 Bft) S-SW 3,7 C 6,8 C 13,4 km/h (3 Bft)
14.11.2013 14:00 7,2 C 77 % 1019,2 hPa 0,0 l/m 6,0 km/h (2 Bft) S-SW 3,4 C 7,0 C 12,3 km/h (2 Bft)
14.11.2013 15:00 6,9 C 74 % 1018,9 hPa 0,0 l/m 3,7 km/h (1 Bft) S 2,5 C 6,9 C 7,9 km/h (2 Bft)
14.11.2013 16:00 5,4 C 78 % 1019,1 hPa 0,0 l/m 0,2 km/h (0 Bft) S-SW 2,0 C 5,4 C 0,9 km/h (0 Bft)
14.11.2013 17:00 3,9 C 84 % 1019,5 hPa 0,0 l/m 0,2 km/h (0 Bft) O-SO 1,4 C 3,9 C 1,2 km/h (1 Bft)
14.11.2013 18:00 1,4 C 89 % 1019,8 hPa 0,0 l/m 0,0 km/h (0 Bft) N -0,1 C 1,4 C 0,7 km/h (0 Bft)
14.11.2013 19:00 -0,1 C 92 % 1020,2 hPa 0,0 l/m 0,0 km/h (0 Bft) N -1,3 C -0,1 C 0,0 km/h (0 Bft)
14.11.2013 20:00 -1,4 C 93 % 1020,8 hPa 0,0 l/m 0,2 km/h (0 Bft) O-SO -2,5 C -1,4 C 0,4 km/h (0 Bft)
14.11.2013 21:00 -2,1 C 93 % 1021,4 hPa 0,0 l/m 0,0 km/h (0 Bft) N -3,0 C -2,1 C 0,0 km/h (0 Bft)
14.11.2013 22:00 -2,2 C 94 % 1021,6 hPa 0,0 l/m 0,0 km/h (0 Bft) N -3,0 C -2,2 C 0,0 km/h (0 Bft)
14.11.2013 23:00 -2,6 C 94 % 1021,9 hPa 0,0 l/m 0,0 km/h (0 Bft) N -3,4 C -2,6 C 0,0 km/h (0 Bft)
15.11.2013 00:00 -2,8 C 94 % 1022,5 hPa 0,0 l/m 0,0 km/h (0 Bft) N -3,6 C -2,8 C 0,0 km/h (0 Bft)
15.11.2013 01:00 -3,1 C 95 % 1023,0 hPa 0,0 l/m 0,0 km/h (0 Bft) N -3,9 C -3,1 C 0,0 km/h (0 Bft)
15.11.2013 02:00 -3,4 C 95 % 1023,5 hPa 0,0 l/m 0,0 km/h (0 Bft) N -4,2 C -3,4 C 0,0 km/h (0 Bft)
15.11.2013 03:00 -3,6 C 95 % 1024,1 hPa 0,0 l/m 0,0 km/h (0 Bft) N -4,3 C -3,6 C 0,0 km/h (0 Bft)
15.11.2013 04:00 -3,7 C 95 % 1024,8 hPa 0,0 l/m 0,0 km/h (0 Bft) N -4,4 C -3,7 C 0,0 km/h (0 Bft)
15.11.2013 05:00 -4,0 C 95 % 1025,5 hPa 0,0 l/m 0,0 km/h (0 Bft) N -4,7 C -4,0 C 0,0 km/h (0 Bft)
15.11.2013 06:00 -4,6 C 95 % 1025,9 hPa 0,0 l/m 0,0 km/h (0 Bft) N -5,3 C -4,6 C 0,0 km/h (0 Bft)
15.11.2013 07:00 -4,5 C 95 % 1026,7 hPa 0,0 l/m 0,0 km/h (0 Bft) N -5,2 C -4,5 C 0,0 km/h (0 Bft)
15.11.2013 08:00 -4,2 C 95 % 1027,9 hPa 0,0 l/m 0,0 km/h (0 Bft) N -4,9 C -4,2 C 0,0 km/h (0 Bft)
15.11.2013 09:00 -2,1 C 95 % 1028,7 hPa 0,0 l/m 0,4 km/h (0 Bft) O -2,8 C -2,1 C 1,1 km/h (0 Bft)
15.11.2013 10:00 0,1 C 95 % 1029,3 hPa 0,0 l/m 0,1 km/h (0 Bft) N -0,6 C 0,1 C 0,4 km/h (0 Bft)
15.11.2013 11:00 1,2 C 95 % 1029,6 hPa 0,0 l/m 1,5 km/h (1 Bft) O-SO 0,4 C 1,2 C 3,3 km/h (1 Bft)
15.11.2013 12:00 1,1 C 95 % 1029,9 hPa 0,0 l/m 2,1 km/h (1 Bft) O 0,3 C 1,1 C 4,7 km/h (1 Bft)
15.11.2013 13:00 1,4 C 95 % 1030,3 hPa 0,0 l/m 0,8 km/h (0 Bft) O-NO 0,7 C 1,4 C 2,0 km/h (1 Bft)
15.11.2013 14:00 1,5 C 95 % 1030,6 hPa 0,2 l/m 1,5 km/h (1 Bft) O 0,8 C 1,5 C 3,9 km/h (1 Bft)
15.11.2013 15:00 0,7 C 95 % 1030,8 hPa 0,0 l/m 1,7 km/h (1 Bft) O-SO 0,0 C 0,7 C 4,5 km/h (1 Bft)
15.11.2013 16:00 -0,4 C 95 % 1031,6 hPa 0,0 l/m 1,1 km/h (1 Bft) O -1,1 C -0,4 C 3,5 km/h (1 Bft)
15.11.2013 17:00 -1,1 C 95 % 1031,8 hPa 0,0 l/m 2,0 km/h (1 Bft) O-SO -1,8 C -1,1 C 5,2 km/h (1 Bft)
15.11.2013 18:00 -1,2 C 95 % 1031,9 hPa 0,0 l/m 1,9 km/h (1 Bft) S-SO -1,9 C -1,2 C 5,5 km/h (2 Bft)
15.11.2013 19:00 -1,1 C 96 % 1032,1 hPa 0,0 l/m 0,9 km/h (0 Bft) S -1,8 C -1,1 C 2,9 km/h (1 Bft)
15.11.2013 20:00 -0,7 C 96 % 1032,3 hPa 0,0 l/m 1,2 km/h (1 Bft) S-SO -1,2 C -0,7 C 3,7 km/h (1 Bft)
15.11.2013 21:00 -0,6 C 96 % 1032,5 hPa 0,0 l/m 0,8 km/h (0 Bft) S-SW -1,2 C -0,6 C 3,2 km/h (1 Bft)
15.11.2013 22:00 -0,8 C 96 % 1032,8 hPa 0,0 l/m 1,0 km/h (0 Bft) S-SW -1,3 C -0,8 C 3,1 km/h (1 Bft)
15.11.2013 23:00 -1,1 C 96 % 1032,8 hPa 0,0 l/m 1,3 km/h (1 Bft) SW -1,7 C -1,1 C 4,0 km/h (1 Bft)
16.11.2013 00:00 -1,0 C 96 % 1032,4 hPa 0,0 l/m 2,6 km/h (1 Bft) S-SW -1,6 C -1,0 C 6,0 km/h (2 Bft)
16.11.2013 01:00 -1,1 C 96 % 1032,4 hPa 0,0 l/m 2,2 km/h (1 Bft) S-SW -1,6 C -1,1 C 5,3 km/h (1 Bft)
16.11.2013 02:00 -1,1 C 96 % 1032,5 hPa 0,0 l/m 1,8 km/h (1 Bft) SW -1,7 C -1,1 C 4,9 km/h (1 Bft)
16.11.2013 03:00 -0,9 C 96 % 1032,6 hPa 0,0 l/m 2,0 km/h (1 Bft) S-SW -1,5 C -0,9 C 5,1 km/h (1 Bft)
16.11.2013 04:00 -0,7 C 96 % 1031,9 hPa 0,0 l/m 3,1 km/h (1 Bft) S-SW -1,3 C -0,7 C 6,9 km/h (2 Bft)
16.11.2013 05:00 -0,4 C 96 % 1031,8 hPa 0,0 l/m 1,5 km/h (1 Bft) SW -1,0 C -0,4 C 4,9 km/h (1 Bft)
16.11.2013 06:00 -0,1 C 96 % 1031,9 hPa 0,0 l/m 1,2 km/h (1 Bft) S-SW -0,7 C -0,1 C 3,9 km/h (1 Bft)
16.11.2013 07:00 0,3 C 96 % 1032,0 hPa 0,2 l/m 3,5 km/h (1 Bft) SW -0,2 C 0,3 C 5,2 km/h (1 Bft)
16.11.2013 08:00 0,7 C 97 % 1032,2 hPa 0,0 l/m 2,0 km/h (1 Bft) W-SW 0,3 C 0,7 C 6,3 km/h (2 Bft)
16.11.2013 09:00 1,1 C 97 % 1032,2 hPa 0,0 l/m 2,6 km/h (1 Bft) S-SW 0,6 C 1,1 C 7,0 km/h (2 Bft)
16.11.2013 10:00 1,5 C 97 % 1032,2 hPa 0,0 l/m 3,1 km/h (1 Bft) SW 1,1 C 1,5 C 7,6 km/h (2 Bft)
16.11.2013 11:00 2,1 C 97 % 1032,0 hPa 0,0 l/m 4,1 km/h (1 Bft) S-SW 1,7 C 2,1 C 9,7 km/h (2 Bft)
16.11.2013 12:00 2,6 C 97 % 1031,5 hPa 0,0 l/m 4,4 km/h (1 Bft) SW 2,1 C 2,6 C 9,3 km/h (2 Bft)
16.11.2013 13:00 2,8 C 97 % 1031,0 hPa 0,0 l/m 3,6 km/h (1 Bft) W-SW 2,4 C 2,8 C 9,2 km/h (2 Bft)
16.11.2013 14:00 2,8 C 97 % 1030,4 hPa 0,0 l/m 3,3 km/h (1 Bft) S-SW 2,3 C 2,8 C 8,5 km/h (2 Bft)
16.11.2013 15:00 2,6 C 97 % 1029,6 hPa 0,0 l/m 3,3 km/h (1 Bft) W-NW 2,2 C 2,6 C 8,7 km/h (2 Bft)
16.11.2013 16:00 2,7 C 97 % 1029,2 hPa 0,0 l/m 2,3 km/h (1 Bft) W-SW 2,3 C 2,7 C 7,1 km/h (2 Bft)
16.11.2013 17:00 2,8 C 97 % 1028,9 hPa 0,0 l/m 2,7 km/h (1 Bft) S-SW 2,4 C 2,8 C 8,0 km/h (2 Bft)
16.11.2013 18:00 2,8 C 97 % 1028,9 hPa 0,0 l/m 3,3 km/h (1 Bft) W 2,4 C 2,8 C 9,5 km/h (2 Bft)
16.11.2013 19:00 2,9 C 97 % 1028,8 hPa 0,0 l/m 2,4 km/h (1 Bft) W 2,5 C 2,9 C 7,6 km/h (2 Bft)
16.11.2013 20:00 3,4 C 97 % 1028,7 hPa 0,0 l/m 1,8 km/h (1 Bft) W 2,9 C 3,4 C 5,6 km/h (2 Bft)
16.11.2013 21:00 3,7 C 97 % 1028,6 hPa 0,0 l/m 1,3 km/h (1 Bft) SW 3,3 C 3,7 C 4,5 km/h (1 Bft)
16.11.2013 22:00 4,0 C 97 % 1028,2 hPa 0,0 l/m 0,7 km/h (0 Bft) SW 3,5 C 4,0 C 3,2 km/h (1 Bft)
16.11.2013 23:00 4,2 C 97 % 1027,7 hPa 0,0 l/m 1,3 km/h (1 Bft) S-SW 3,7 C 4,2 C 4,0 km/h (1 Bft)
17.11.2013 00:00 4,1 C 97 % 1027,4 hPa 0,0 l/m 3,7 km/h (1 Bft) S-SW 3,6 C 4,1 C 7,9 km/h (2 Bft)
17.11.2013 01:00 3,5 C 97 % 1027,3 hPa 0,0 l/m 3,2 km/h (1 Bft) SW 3,1 C 3,5 C 6,7 km/h (2 Bft)
17.11.2013 02:00 3,5 C 97 % 1027,1 hPa 0,0 l/m 2,4 km/h (1 Bft) SW 3,1 C 3,5 C 6,1 km/h (2 Bft)
17.11.2013 03:00 3,5 C 97 % 1026,9 hPa 0,0 l/m 2,0 km/h (1 Bft) SW 3,1 C 3,5 C 5,9 km/h (2 Bft)
17.11.2013 04:00 3,5 C 97 % 1026,7 hPa 0,0 l/m 2,0 km/h (1 Bft) SW 3,1 C 3,5 C 6,5 km/h (2 Bft)
17.11.2013 05:00 3,5 C 97 % 1026,9 hPa 0,0 l/m 1,4 km/h (1 Bft) SW 3,1 C 3,5 C 4,8 km/h (1 Bft)
17.11.2013 06:00 3,6 C 97 % 1026,9 hPa 0,0 l/m 1,5 km/h (1 Bft) SW 3,2 C 3,6 C 4,5 km/h (1 Bft)
17.11.2013 07:00 3,6 C 97 % 1027,0 hPa 0,0 l/m 0,3 km/h (0 Bft) SW 3,2 C 3,6 C 1,5 km/h (1 Bft)
17.11.2013 08:00 3,7 C 97 % 1027,2 hPa 0,0 l/m 0,1 km/h (0 Bft) N 3,3 C 3,7 C 0,5 km/h (0 Bft)
17.11.2013 09:00 4,0 C 97 % 1027,4 hPa 0,0 l/m 0,4 km/h (0 Bft) N 3,6 C 4,0 C 2,1 km/h (1 Bft)
17.11.2013 10:00 4,3 C 97 % 1027,5 hPa 0,0 l/m 0,6 km/h (0 Bft) SW 3,9 C 4,3 C 2,7 km/h (1 Bft)
17.11.2013 11:00 4,8 C 97 % 1027,2 hPa 0,0 l/m 0,4 km/h (0 Bft) S-SW 4,3 C 4,8 C 1,3 km/h (1 Bft)
17.11.2013 12:00 5,3 C 97 % 1026,6 hPa 0,0 l/m 0,3 km/h (0 Bft) SW 4,8 C 5,3 C 1,3 km/h (1 Bft)
17.11.2013 13:00 6,1 C 96 % 1025,8 hPa 0,0 l/m 0,0 km/h (0 Bft) N 5,5 C 6,1 C 0,0 km/h (0 Bft)
17.11.2013 14:00 6,5 C 95 % 1025,3 hPa 0,0 l/m 0,0 km/h (0 Bft) N 5,8 C 6,5 C 0,0 km/h (0 Bft)
17.11.2013 15:00 6,5 C 94 % 1025,0 hPa 0,0 l/m 0,0 km/h (0 Bft) N 5,6 C 6,5 C 0,0 km/h (0 Bft)
17.11.2013 16:00 6,3 C 95 % 1024,7 hPa 0,0 l/m 0,0 km/h (0 Bft) N 5,5 C 6,3 C 0,0 km/h (0 Bft)
17.11.2013 17:00 6,2 C 95 % 1024,4 hPa 0,0 l/m 0,0 km/h (0 Bft) N 5,4 C 6,2 C 0,0 km/h (0 Bft)
17.11.2013 18:00 6,2 C 95 % 1024,3 hPa 0,0 l/m 0,0 km/h (0 Bft) N 5,5 C 6,2 C 0,0 km/h (0 Bft)
17.11.2013 19:00 6,2 C 96 % 1023,8 hPa 0,2 l/m 0,2 km/h (0 Bft) O 5,6 C 6,2 C 0,7 km/h (0 Bft)
17.11.2013 20:00 6,2 C 96 % 1023,2 hPa 0,0 l/m 0,4 km/h (0 Bft) O-SO 5,6 C 6,2 C 1,1 km/h (0 Bft)
17.11.2013 21:00 6,1 C 96 % 1023,0 hPa 0,0 l/m 0,1 km/h (0 Bft) N 5,5 C 6,1 C 0,3 km/h (0 Bft)
17.11.2013 22:00 6,1 C 96 % 1022,5 hPa 0,0 l/m 0,3 km/h (0 Bft) O 5,5 C 6,1 C 1,0 km/h (0 Bft)
17.11.2013 23:00 6,1 C 96 % 1021,7 hPa 0,0 l/m 1,2 km/h (1 Bft) O-SO 5,5 C 6,1 C 3,3 km/h (1 Bft)
Min-Datum _ 15.11.13 12.11.13 11.11.13 - 11.11.13 - 15.11.13 15.11.13 11.11.13
_ Min-Zeit 06:25 13:35 00:00 - 02:05 - 06:25 06:25 04:45
Minimum _ -4,9 C 71 % 1018,1 hPa - 0,0 km/h (0 Bft) - -5,7 C -4,9 C 0,0 km/h (0 Bft)
Max-Datum _ 13.11.13 16.11.13 15.11.13 11.11.13 14.11.13 - 13.11.13 13.11.13 12.11.13
_ Max-Zeit 14:20 07:50 22:20 07:00 13:05 - 13:15 14:20 10:55
Maximum _ 10,3 C 97 % 1032,9 hPa 0,2 l/m 10,0 km/h
S-SW (2 Bft)
- 6,7 C 10,3 C 20,9 km/h
S-SW (4 Bft)
Durchschnitt _ 3,1 C 92 % 1027,0 hPa #1,0 l/m 1,5 km/h (1 Bft) S-SW 1,9 C 3,1 C 4,1 km/h (1 Bft)